Puropanmaru No.3 — JD3322 — position and weather

sailwx.info

Track history (hours):
 
Tides and Currents Weather Stations Pressure Air Temp Water Temp Dewpoint Dewpoint Depression Visibility Wind Speed Wind Dir Waves Ship Positions

Puropanmaru No.3

Last reported at 2015-May-03 07:26 UTC. Time now 2015-May-06 20:33 UTC.
Position N 35°03' E 139°31'.

Length 68 m; draft 4.5 m.

Type: Tanker. MMSI: 431003365.

Date/timePositionNaut miles runAvg speedWind from/ knotsBaromVisibWave heightAir tempDewpointWater temp
2015-May-03 07:26N 35°03' E 139°31'1112.4
2015-May-03 06:33N 35°08' E 139°43'1110.9
2015-May-03 05:33N 35°19' E 139°43'1110.7
2015-May-03 04:33N 35°28' E 139°49'1211.8
2015-May-03 03:33N 35°32' E 140°03'0 0.1
2015-May-03 02:33N 35°32' E 140°03'0 0.0
2015-May-03 01:33N 35°32' E 140°03'0 0.0
2015-May-03 00:33N 35°32' E 140°03'1 0.9
2015-May-02 23:33N 35°32' E 140°02'8 7.7
2015-May-02 22:32N 35°29' E 139°54'0 0.0
2015-May-02 21:32N 35°29' E 139°54'0 0.0
2015-May-02 20:29N 35°29' E 139°54'0 0.0
2015-May-02 19:29N 35°29' E 139°54'0 0.0
2015-May-02 18:32N 35°29' E 139°54'0 0.0
2015-May-02 17:29N 35°29' E 139°54'0 0.1
2015-May-02 16:32N 35°29' E 139°54'0 0.0
2015-May-02 15:20N 35°29' E 139°54'3 3.4
2015-May-02 14:33N 35°28' E 139°51'1211.8
2015-May-02 13:33N 35°17' E 139°46'1312.7
2015-May-02 12:33N 35°04' E 139°45'20 8.4
2015-May-02 10:08N 34°59' E 140°09'2412.4
2015-May-02 08:14N 35°15' E 140°31'912.9
2015-May-02 07:30N 35°23' E 140°37'34 9.7
2015-May-02 04:03N 35°56' E 140°42'3 1.5
2015-May-02 02:10N 35°53' E 140°41'0 0.0
2015-May-02 01:31N 35°53' E 140°41'0 0.0
2015-May-02 00:17N 35°53' E 140°41'1 0.9
2015-May-01 23:32N 35°54' E 140°41'5 3.4
2015-May-01 22:05N 35°58' E 140°44'0 0.0
2015-May-01 21:29N 35°58' E 140°44'0 0.0
2015-May-01 20:29N 35°58' E 140°44'0 0.0
2015-May-01 19:29N 35°58' E 140°44'0 0.0
2015-May-01 18:26N 35°58' E 140°44'0 0.1
2015-May-01 17:29N 35°58' E 140°44'0 0.0
2015-May-01 16:23N 35°58' E 140°44'8 9.0
2015-May-01 15:30N 35°51' E 140°49'1212.4
2015-May-01 14:33N 35°40' E 140°54'1414.0
2015-May-01 13:31N 35°28' E 140°44'1614.2
2015-May-01 12:23N 35°15' E 140°33'1214.3
2015-May-01 11:33N 35°06' E 140°24'1413.6
2015-May-01 10:33N 34°59' E 140°09'2110.4
2015-May-01 08:31N 34°58' E 139°43'1212.9
2015-May-01 07:33N 35°11' E 139°46'1212.3
2015-May-01 06:33N 35°23' E 139°42'1312.6
2015-May-01 05:33N 35°31' E 139°54'8 6.6
2015-May-01 04:24N 35°32' E 140°03'0 0.0
2015-May-01 03:24N 35°32' E 140°03'0 0.0
2015-May-01 02:18N 35°32' E 140°03'0 0.0
2015-May-01 01:18N 35°32' E 140°03'0 0.0
2015-May-01 00:30N 35°32' E 140°03'1 1.3
2015-Apr-30 23:33N 35°33' E 140°02'2 1.8
2015-Apr-30 22:20N 35°34' E 140°05'0 0.0
2015-Apr-30 21:32N 35°34' E 140°05'0 0.0
2015-Apr-30 20:20N 35°34' E 140°05'0 0.0
2015-Apr-30 19:26N 35°34' E 140°05'0 0.0
2015-Apr-30 18:32N 35°34' E 140°05'0 0.0
2015-Apr-30 17:32N 35°34' E 140°05'0 0.0
2015-Apr-30 16:32N 35°34' E 140°05'0 0.0
2015-Apr-30 15:29N 35°34' E 140°05'0 0.0
2015-Apr-30 14:32N 35°34' E 140°05'0 0.0
2015-Apr-30 13:26N 35°34' E 140°05'0 0.0
2015-Apr-30 12:29N 35°34' E 140°05'0 0.0
2015-Apr-30 11:32N 35°34' E 140°05'0 0.0
2015-Apr-30 10:32N 35°34' E 140°05'0 0.0
2015-Apr-30 09:32N 35°34' E 140°05'0 0.0
2015-Apr-30 08:32N 35°34' E 140°05'0 0.0
2015-Apr-30 07:08N 35°34' E 140°05'0 0.1
2015-Apr-30 06:29N 35°34' E 140°05'0 0.0
2015-Apr-30 05:32N 35°34' E 140°05'0 0.0
2015-Apr-30 04:32N 35°34' E 140°05'0 0.0
2015-Apr-30 03:32N 35°34' E 140°05'0 0.0
2015-Apr-30 02:32N 35°34' E 140°05'0 0.0
2015-Apr-30 01:20N 35°34' E 140°05'0 0.0
2015-Apr-30 00:32N 35°34' E 140°05'5 4.9
2015-Apr-29 23:33N 35°32' E 139°59'6 5.8
2015-Apr-29 22:33N 35°29' E 139°54'0 0.0
2015-Apr-29 21:27N 35°29' E 139°54'0 0.0
2015-Apr-29 20:33N 35°29' E 139°54'0 0.0
2015-Apr-29 19:33N 35°29' E 139°54'0 0.0
2015-Apr-29 18:33N 35°29' E 139°54'0 0.0
2015-Apr-29 17:33N 35°29' E 139°54'0 0.0
2015-Apr-29 16:33N 35°29' E 139°54'0 0.0
2015-Apr-29 15:33N 35°29' E 139°54'0 0.0
2015-Apr-29 14:27N 35°29' E 139°54'0 0.1
2015-Apr-29 13:33N 35°29' E 139°54'0 0.0
2015-Apr-29 12:33N 35°29' E 139°54'0 0.0
2015-Apr-29 11:30N 35°29' E 139°54'0 0.0
2015-Apr-29 10:27N 35°29' E 139°54'0 0.0
2015-Apr-29 09:27N 35°29' E 139°54'0 0.0
2015-Apr-29 08:30N 35°29' E 139°54'7 6.9
2015-Apr-29 07:33N 35°25' E 139°47'1111.4
2015-Apr-29 06:33N 35°14' E 139°47'1413.6
2015-Apr-29 05:33N 35°00' E 139°43'1410.3
2015-Apr-29 04:13N 34°53' E 139°57'1113.2
2015-Apr-29 03:22N 34°59' E 140°09'2512.4
2015-Apr-29 01:21N 35°15' E 140°33'1312.8
2015-Apr-29 00:18N 35°26' E 140°43'912.7
2015-Apr-28 23:33N 35°33' E 140°49'2612.7
2015-Apr-28 21:32N 35°58' E 140°59'1513.0
2015-Apr-28 20:22N 36°13' E 141°01'1613.2
2015-Apr-28 19:10N 36°29' E 141°04'23 0.9
2015-Apr-27 17:33N 36°52' E 141°07'1312.7
2015-Apr-27 16:33N 36°39' E 141°05'1312.6
2015-Apr-27 15:30N 36°26' E 141°03'1313.1
2015-Apr-27 14:30N 36°13' E 141°01'1313.2
2015-Apr-27 13:29N 35°60' E 140°59'1313.1
2015-Apr-27 12:29N 35°46' E 140°57'1613.0
2015-Apr-27 11:13N 35°32' E 140°47'913.8
2015-Apr-27 10:32N 35°25' E 140°40'3213.9
2015-Apr-27 08:14N 35°02' E 140°13'1513.7
2015-Apr-27 07:07N 34°53' E 139°57'812.5
2015-Apr-27 06:27N 34°53' E 139°47'1011.4
2015-Apr-27 05:33N 35°03' E 139°44'1212.5
2015-Apr-27 04:33N 35°15' E 139°46'1111.2
2015-Apr-27 03:33N 35°25' E 139°39'0 0.0
2015-Apr-27 02:33N 35°25' E 139°39'0 0.0
2015-Apr-27 01:33N 35°25' E 139°39'0 0.0
2015-Apr-27 00:33N 35°25' E 139°39'0 0.0
2015-Apr-26 23:33N 35°25' E 139°39'3 2.6
2015-Apr-26 22:33N 35°22' E 139°40'0 0.0
2015-Apr-26 21:33N 35°22' E 139°40'0 0.0
2015-Apr-26 20:33N 35°22' E 139°40'0 0.0
2015-Apr-26 19:33N 35°22' E 139°40'0 0.0
2015-Apr-26 18:33N 35°22' E 139°40'0 0.0
2015-Apr-26 17:33N 35°22' E 139°40'0 0.0
2015-Apr-26 16:33N 35°22' E 139°40'0 0.0
2015-Apr-26 15:33N 35°22' E 139°40'0 0.0
2015-Apr-26 14:33N 35°22' E 139°40'0 0.0
2015-Apr-26 13:33N 35°22' E 139°40'0 0.0
2015-Apr-26 12:33N 35°22' E 139°40'0 0.0
2015-Apr-26 11:33N 35°22' E 139°40'0 0.0
2015-Apr-26 10:33N 35°22' E 139°40'0 0.0
2015-Apr-26 09:33N 35°22' E 139°40'0 0.0
2015-Apr-26 08:33N 35°22' E 139°40'0 0.0
2015-Apr-26 07:33N 35°22' E 139°40'0 0.0
2015-Apr-26 06:33N 35°22' E 139°40'6 6.2
2015-Apr-26 05:33N 35°18' E 139°45'1211.8
2015-Apr-26 04:34N 35°06' E 139°44'234 5.2
2015-Apr-24 07:27N 34°37' E 135°01'9 9.8
2015-Apr-24 06:33N 34°29' E 135°03'1313.0
2015-Apr-24 05:33N 34°16' E 134°59'  
Track history (hours):
 
Tides and Currents Weather Stations Pressure Air Temp Water Temp Dewpoint Dewpoint Depression Visibility Wind Speed Wind Dir Waves Ship Positions

Puropanmaru No.3

Last reported at 2015-May-03 07:26 UTC. Time now 2015-May-06 20:33 UTC.
Position N 35°03' E 139°31'.

Length 68 m; draft 4.5 m.

Type: Tanker. MMSI: 431003365.

Date/timePositionNaut miles runAvg speedWind from/ knotsBaromVisibWave heightAir tempDewpointWater temp
2015-May-03 07:26N 35°03' E 139°31'1112.4
2015-May-03 06:33N 35°08' E 139°43'1110.9
2015-May-03 05:33N 35°19' E 139°43'1110.7
2015-May-03 04:33N 35°28' E 139°49'1211.8
2015-May-03 03:33N 35°32' E 140°03'0 0.1
2015-May-03 02:33N 35°32' E 140°03'0 0.0
2015-May-03 01:33N 35°32' E 140°03'0 0.0
2015-May-03 00:33N 35°32' E 140°03'1 0.9
2015-May-02 23:33N 35°32' E 140°02'8 7.7
2015-May-02 22:32N 35°29' E 139°54'0 0.0
2015-May-02 21:32N 35°29' E 139°54'0 0.0
2015-May-02 20:29N 35°29' E 139°54'0 0.0
2015-May-02 19:29N 35°29' E 139°54'0 0.0
2015-May-02 18:32N 35°29' E 139°54'0 0.0
2015-May-02 17:29N 35°29' E 139°54'0 0.1
2015-May-02 16:32N 35°29' E 139°54'0 0.0
2015-May-02 15:20N 35°29' E 139°54'3 3.4
2015-May-02 14:33N 35°28' E 139°51'1211.8
2015-May-02 13:33N 35°17' E 139°46'1312.7
2015-May-02 12:33N 35°04' E 139°45'20 8.4
2015-May-02 10:08N 34°59' E 140°09'2412.4
2015-May-02 08:14N 35°15' E 140°31'912.9
2015-May-02 07:30N 35°23' E 140°37'34 9.7
2015-May-02 04:03N 35°56' E 140°42'3 1.5
2015-May-02 02:10N 35°53' E 140°41'0 0.0
2015-May-02 01:31N 35°53' E 140°41'0 0.0
2015-May-02 00:17N 35°53' E 140°41'1 0.9
2015-May-01 23:32N 35°54' E 140°41'5 3.4
2015-May-01 22:05N 35°58' E 140°44'0 0.0
2015-May-01 21:29N 35°58' E 140°44'0 0.0
2015-May-01 20:29N 35°58' E 140°44'0 0.0
2015-May-01 19:29N 35°58' E 140°44'0 0.0
2015-May-01 18:26N 35°58' E 140°44'0 0.1
2015-May-01 17:29N 35°58' E 140°44'0 0.0
2015-May-01 16:23N 35°58' E 140°44'8 9.0
2015-May-01 15:30N 35°51' E 140°49'1212.4
2015-May-01 14:33N 35°40' E 140°54'1414.0
2015-May-01 13:31N 35°28' E 140°44'1614.2
2015-May-01 12:23N 35°15' E 140°33'1214.3
2015-May-01 11:33N 35°06' E 140°24'1413.6
2015-May-01 10:33N 34°59' E 140°09'2110.4
2015-May-01 08:31N 34°58' E 139°43'1212.9
2015-May-01 07:33N 35°11' E 139°46'1212.3
2015-May-01 06:33N 35°23' E 139°42'1312.6
2015-May-01 05:33N 35°31' E 139°54'8 6.6
2015-May-01 04:24N 35°32' E 140°03'0 0.0
2015-May-01 03:24N 35°32' E 140°03'0 0.0
2015-May-01 02:18N 35°32' E 140°03'0 0.0
2015-May-01 01:18N 35°32' E 140°03'0 0.0
2015-May-01 00:30N 35°32' E 140°03'1 1.3
2015-Apr-30 23:33N 35°33' E 140°02'2 1.8
2015-Apr-30 22:20N 35°34' E 140°05'0 0.0
2015-Apr-30 21:32N 35°34' E 140°05'0 0.0
2015-Apr-30 20:20N 35°34' E 140°05'0 0.0
2015-Apr-30 19:26N 35°34' E 140°05'0 0.0
2015-Apr-30 18:32N 35°34' E 140°05'0 0.0
2015-Apr-30 17:32N 35°34' E 140°05'0 0.0
2015-Apr-30 16:32N 35°34' E 140°05'0 0.0
2015-Apr-30 15:29N 35°34' E 140°05'0 0.0
2015-Apr-30 14:32N 35°34' E 140°05'0 0.0
2015-Apr-30 13:26N 35°34' E 140°05'0 0.0
2015-Apr-30 12:29N 35°34' E 140°05'0 0.0
2015-Apr-30 11:32N 35°34' E 140°05'0 0.0
2015-Apr-30 10:32N 35°34' E 140°05'0 0.0
2015-Apr-30 09:32N 35°34' E 140°05'0 0.0
2015-Apr-30 08:32N 35°34' E 140°05'0 0.0
2015-Apr-30 07:08N 35°34' E 140°05'0 0.1
2015-Apr-30 06:29N 35°34' E 140°05'0 0.0
2015-Apr-30 05:32N 35°34' E 140°05'0 0.0
2015-Apr-30 04:32N 35°34' E 140°05'0 0.0
2015-Apr-30 03:32N 35°34' E 140°05'0 0.0
2015-Apr-30 02:32N 35°34' E 140°05'0 0.0
2015-Apr-30 01:20N 35°34' E 140°05'0 0.0
2015-Apr-30 00:32N 35°34' E 140°05'5 4.9
2015-Apr-29 23:33N 35°32' E 139°59'6 5.8
2015-Apr-29 22:33N 35°29' E 139°54'0 0.0
2015-Apr-29 21:27N 35°29' E 139°54'0 0.0
2015-Apr-29 20:33N 35°29' E 139°54'0 0.0
2015-Apr-29 19:33N 35°29' E 139°54'0 0.0
2015-Apr-29 18:33N 35°29' E 139°54'0 0.0
2015-Apr-29 17:33N 35°29' E 139°54'0 0.0
2015-Apr-29 16:33N 35°29' E 139°54'0 0.0
2015-Apr-29 15:33N 35°29' E 139°54'0 0.0
2015-Apr-29 14:27N 35°29' E 139°54'0 0.1
2015-Apr-29 13:33N 35°29' E 139°54'0 0.0
2015-Apr-29 12:33N 35°29' E 139°54'0 0.0
2015-Apr-29 11:30N 35°29' E 139°54'0 0.0
2015-Apr-29 10:27N 35°29' E 139°54'0 0.0
2015-Apr-29 09:27N 35°29' E 139°54'0 0.0
2015-Apr-29 08:30N 35°29' E 139°54'7 6.9
2015-Apr-29 07:33N 35°25' E 139°47'1111.4
2015-Apr-29 06:33N 35°14' E 139°47'1413.6
2015-Apr-29 05:33N 35°00' E 139°43'1410.3
2015-Apr-29 04:13N 34°53' E 139°57'1113.2
2015-Apr-29 03:22N 34°59' E 140°09'2512.4
2015-Apr-29 01:21N 35°15' E 140°33'1312.8
2015-Apr-29 00:18N 35°26' E 140°43'912.7
2015-Apr-28 23:33N 35°33' E 140°49'2612.7
2015-Apr-28 21:32N 35°58' E 140°59'1513.0
2015-Apr-28 20:22N 36°13' E 141°01'1613.2
2015-Apr-28 19:10N 36°29' E 141°04'23 0.9
2015-Apr-27 17:33N 36°52' E 141°07'1312.7
2015-Apr-27 16:33N 36°39' E 141°05'1312.6
2015-Apr-27 15:30N 36°26' E 141°03'1313.1
2015-Apr-27 14:30N 36°13' E 141°01'1313.2
2015-Apr-27 13:29N 35°60' E 140°59'1313.1
2015-Apr-27 12:29N 35°46' E 140°57'1613.0
2015-Apr-27 11:13N 35°32' E 140°47'913.8
2015-Apr-27 10:32N 35°25' E 140°40'3213.9
2015-Apr-27 08:14N 35°02' E 140°13'1513.7
2015-Apr-27 07:07N 34°53' E 139°57'812.5
2015-Apr-27 06:27N 34°53' E 139°47'1011.4
2015-Apr-27 05:33N 35°03' E 139°44'1212.5
2015-Apr-27 04:33N 35°15' E 139°46'1111.2
2015-Apr-27 03:33N 35°25' E 139°39'0 0.0
2015-Apr-27 02:33N 35°25' E 139°39'0 0.0
2015-Apr-27 01:33N 35°25' E 139°39'0 0.0
2015-Apr-27 00:33N 35°25' E 139°39'0 0.0
2015-Apr-26 23:33N 35°25' E 139°39'3 2.6
2015-Apr-26 22:33N 35°22' E 139°40'0 0.0
2015-Apr-26 21:33N 35°22' E 139°40'0 0.0
2015-Apr-26 20:33N 35°22' E 139°40'0 0.0
2015-Apr-26 19:33N 35°22' E 139°40'0 0.0
2015-Apr-26 18:33N 35°22' E 139°40'0 0.0
2015-Apr-26 17:33N 35°22' E 139°40'0 0.0
2015-Apr-26 16:33N 35°22' E 139°40'0 0.0
2015-Apr-26 15:33N 35°22' E 139°40'0 0.0
2015-Apr-26 14:33N 35°22' E 139°40'0 0.0
2015-Apr-26 13:33N 35°22' E 139°40'0 0.0
2015-Apr-26 12:33N 35°22' E 139°40'0 0.0
2015-Apr-26 11:33N 35°22' E 139°40'0 0.0
2015-Apr-26 10:33N 35°22' E 139°40'0 0.0
2015-Apr-26 09:33N 35°22' E 139°40'0 0.0
2015-Apr-26 08:33N 35°22' E 139°40'0 0.0
2015-Apr-26 07:33N 35°22' E 139°40'0 0.0
2015-Apr-26 06:33N 35°22' E 139°40'6 6.2
2015-Apr-26 05:33N 35°18' E 139°45'1211.8
2015-Apr-26 04:34N 35°06' E 139°44'234 5.2
2015-Apr-24 07:27N 34°37' E 135°01'9 9.8
2015-Apr-24 06:33N 34°29' E 135°03'1313.0
2015-Apr-24 05:33N 34°16' E 134°59'  

Dump ship's entire track history